Time;durP1;ratioP1;P1;durP2;ratioP2;P2;SDS_P1;SDS_P2;PMS_P1;PMS_P2;Temp;Humidity;BMP_temperature;BMP_pressure;BME280_temperature;BME280_humidity;BME280_pressure;Samples;Min_cycle;Max_cycle;Signal;HPM_P1;HPM_P2
2023/01/01 00:00:10;;;;;;;16.83;12.68;;;13.00;99.90;;;;;;5011223;28;20218;-70
2023/01/01 00:02:37;;;;;;;16.00;11.60;;;12.90;99.90;;;;;;5004885;28;20291;-70
2023/01/01 00:05:05;;;;;;;18.83;10.80;;;12.90;99.90;;;;;;4991824;28;20226;-70
2023/01/01 00:07:32;;;;;;;15.65;12.20;;;12.90;99.90;;;;;;4998617;28;20468;-70
2023/01/01 00:12:44;;;;;;;10.77;8.02;;;12.80;99.90;;;;;;5011471;28;20730;-70
2023/01/01 00:15:11;;;;;;;9.30;7.53;;;12.90;99.90;;;;;;5010947;28;20296;-69
2023/01/01 00:17:38;;;;;;;11.65;7.88;;;12.90;99.90;;;;;;4991453;28;20677;-70
2023/01/01 00:20:06;;;;;;;11.20;8.38;;;12.90;99.90;;;;;;4990556;28;20234;-69
2023/01/01 00:22:33;;;;;;;12.73;8.23;;;12.80;99.90;;;;;;4991440;28;20694;-70
2023/01/01 00:25:01;;;;;;;9.10;7.38;;;12.80;99.90;;;;;;5005542;28;20218;-69
2023/01/01 00:27:28;;;;;;;10.43;8.40;;;12.80;99.90;;;;;;5011301;28;20210;-70
2023/01/01 00:29:55;;;;;;;8.67;7.00;;;12.90;99.90;;;;;;5010996;28;20223;-70
2023/01/01 00:32:21;;;;;;;8.82;7.13;;;12.90;99.90;;;;;;5011156;28;20465;-70
2023/01/01 00:34:48;;;;;;;8.07;6.00;;;12.80;99.90;;;;;;5011330;28;20703;-70
2023/01/01 00:37:17;;;;;;;7.47;5.73;;;12.80;99.90;;;;;;5011167;28;20203;-69
2023/01/01 00:39:43;;;;;;;8.05;6.05;;;12.80;99.90;;;;;;5010729;28;20482;-70
2023/01/01 00:42:11;;;;;;;6.20;5.60;;;12.80;99.90;;;;;;5011423;28;20203;-70
2023/01/01 00:44:38;;;;;;;8.63;5.60;;;12.80;99.90;;;;;;5011138;28;20225;-70
2023/01/01 00:47:05;;;;;;;6.65;5.22;;;12.80;99.90;;;;;;5011392;28;20206;-69
2023/01/01 00:49:32;;;;;;;8.55;6.00;;;12.70;99.90;;;;;;5010571;28;20224;-70
2023/01/01 00:51:58;;;;;;;7.57;5.83;;;12.70;99.90;;;;;;5011366;28;20202;-69
2023/01/01 00:54:25;;;;;;;7.17;5.23;;;12.70;99.90;;;;;;5010893;28;20916;-70
2023/01/01 00:56:52;;;;;;;7.03;5.20;;;12.60;99.90;;;;;;5011215;28;20461;-70
2023/01/01 00:59:20;;;;;;;6.63;5.15;;;12.60;99.90;;;;;;5010645;28;20461;-70
2023/01/01 01:01:47;;;;;;;9.27;5.87;;;12.50;99.90;;;;;;5015922;28;20233;-69
2023/01/01 01:04:14;;;;;;;7.80;6.22;;;12.50;99.90;;;;;;5012945;28;20999;-70
2023/01/01 01:06:41;;;;;;;8.15;6.30;;;12.40;99.90;;;;;;5010626;28;20703;-70
2023/01/01 01:09:08;;;;;;;8.50;6.50;;;12.40;99.90;;;;;;5010529;28;20210;-75
2023/01/01 01:11:35;;;;;;;8.40;5.73;;;12.40;99.90;;;;;;5010572;28;20202;-69
2023/01/01 01:14:02;;;;;;;9.03;6.57;;;12.30;99.90;;;;;;5010978;28;20464;-70
2023/01/01 01:16:32;;;;;;;6.57;5.65;;;12.30;99.90;;;;;;5010310;28;20485;-69
2023/01/01 01:19:00;;;;;;;7.70;5.93;;;12.30;99.90;;;;;;5010374;28;20229;-70
2023/01/01 01:21:28;;;;;;;10.70;6.60;;;12.20;99.90;;;;;;5010042;28;20237;-70
2023/01/01 01:23:58;;;;;;;10.00;6.47;;;12.20;99.90;;;;;;5010707;28;20574;-69
2023/01/01 01:26:26;;;;;;;8.50;6.55;;;12.20;99.90;;;;;;5010468;28;20484;-69
2023/01/01 01:28:54;;;;;;;9.45;6.70;;;12.10;99.90;;;;;;5009952;28;20203;-69
2023/01/01 01:31:22;;;;;;;9.18;6.25;;;12.10;99.90;;;;;;5012326;28;20692;-70
2023/01/01 01:33:51;;;;;;;7.72;6.13;;;12.00;99.90;;;;;;5013879;28;20684;-70
2023/01/01 01:36:19;;;;;;;7.63;6.22;;;12.00;99.90;;;;;;5014140;28;20306;-70
2023/01/01 01:38:46;;;;;;;10.43;6.70;;;11.90;99.90;;;;;;5013672;28;20214;-70
2023/01/01 01:41:14;;;;;;;6.72;6.07;;;11.80;99.90;;;;;;5013881;28;20237;-70
2023/01/01 01:43:52;;;;;;;9.77;7.18;;;11.80;99.90;;;;;;5013737;28;20206;-70
2023/01/01 01:46:26;;;;;;;8.70;6.10;;;11.70;99.90;;;;;;5013984;28;20246;-70
2023/01/01 01:48:56;;;;;;;9.63;6.10;;;11.70;99.90;;;;;;5013526;28;20207;-69
2023/01/01 01:51:27;;;;;;;8.18;6.25;;;11.60;99.90;;;;;;5013714;28;20206;-68
2023/01/01 01:53:59;;;;;;;8.23;5.93;;;11.50;99.90;;;;;;5013917;28;20207;-70
2023/01/01 01:56:31;;;;;;;6.82;5.80;;;11.40;99.90;;;;;;5013535;28;20263;-69
2023/01/01 01:58:58;;;;;;;7.53;5.80;;;11.30;99.90;;;;;;5013435;28;20206;-69
2023/01/01 02:01:26;;;;;;;6.72;5.50;;;11.20;99.90;;;;;;5013571;28;20230;-70
2023/01/01 02:03:58;;;;;;;7.35;5.63;;;11.10;99.90;;;;;;5013711;28;20676;-69
2023/01/01 02:06:26;;;;;;;8.57;6.50;;;11.00;99.90;;;;;;5013481;28;20231;-69
2023/01/01 02:08:53;;;;;;;7.60;5.50;;;10.90;99.90;;;;;;5013224;28;20669;-69
2023/01/01 02:11:20;;;;;;;7.43;5.45;;;10.90;99.90;;;;;;5013541;28;20198;-69
2023/01/01 02:13:47;;;;;;;8.10;5.38;;;11.00;99.90;;;;;;5013297;28;20206;-69
2023/01/01 02:16:20;;;;;;;7.80;5.75;;;11.00;99.90;;;;;;5013479;28;20223;-70
2023/01/01 02:18:57;;;;;;;7.40;4.45;;;11.10;99.90;;;;;;5012870;28;20210;-69
2023/01/01 02:21:30;;;;;;;7.97;5.65;;;11.00;99.90;;;;;;5012802;28;20692;-69
2023/01/01 02:24:26;;;;;;;8.63;5.40;;;10.90;99.90;;;;;;5010730;28;20202;-69
2023/01/01 02:26:58;;;;;;;7.38;5.07;;;10.80;99.90;;;;;;5013476;28;20222;-70
2023/01/01 02:29:48;;;;;;;9.48;5.35;;;10.70;99.90;;;;;;5012415;28;20210;-70
2023/01/01 02:32:20;;;;;;;8.45;6.10;;;10.60;99.90;;;;;;5008943;28;20209;-70
2023/01/01 02:34:53;;;;;;;7.28;5.05;;;10.50;99.90;;;;;;5012683;28;20229;-69
2023/01/01 02:37:21;;;;;;;7.20;4.90;;;10.50;99.90;;;;;;5013101;28;20673;-70
2023/01/01 02:39:54;;;;;;;7.07;5.60;;;10.60;99.90;;;;;;5012480;28;20202;-69
2023/01/01 02:42:23;;;;;;;7.88;5.43;;;10.70;99.90;;;;;;5012459;28;20219;-69
2023/01/01 02:44:54;;;;;;;7.03;4.85;;;10.70;99.90;;;;;;5012989;28;20238;-70
2023/01/01 02:47:21;;;;;;;6.45;4.53;;;10.80;99.90;;;;;;5012942;28;20209;-69
2023/01/01 02:49:55;;;;;;;7.20;4.72;;;10.80;99.90;;;;;;5012667;28;20213;-70
2023/01/01 02:52:39;;;;;;;7.25;5.65;;;11.00;99.90;;;;;;5012872;28;20201;-70
2023/01/01 02:55:16;;;;;;;8.75;5.70;;;11.20;99.90;;;;;;5012840;28;20226;-70
2023/01/01 02:57:49;;;;;;;6.85;4.75;;;11.30;99.90;;;;;;5012691;28;20206;-70
2023/01/01 03:00:26;;;;;;;5.65;4.30;;;11.30;99.90;;;;;;5012344;28;20216;-69
2023/01/01 03:03:13;;;;;;;6.28;4.60;;;11.40;99.90;;;;;;5013187;28;20202;-69
2023/01/01 03:08:33;;;;;;;5.82;4.13;;;11.50;99.90;;;;;;5011617;28;20685;-69
2023/01/01 03:11:05;;;;;;;5.85;4.13;;;11.60;99.90;;;;;;5012238;28;20205;-69
2023/01/01 03:13:40;;;;;;;4.90;4.38;;;11.60;99.90;;;;;;5011993;28;20206;-69
2023/01/01 03:16:14;;;;;;;5.55;4.45;;;11.60;99.90;;;;;;5012057;28;20415;-69
2023/01/01 03:18:47;;;;;;;7.35;4.18;;;11.60;99.90;;;;;;5011410;28;20692;-69
2023/01/01 03:21:17;;;;;;;5.85;4.68;;;11.60;99.90;;;;;;5012029;28;20226;-69
2023/01/01 03:23:49;;;;;;;4.32;3.90;;;11.60;99.90;;;;;;5011791;28;20207;-69
2023/01/01 03:26:19;;;;;;;4.70;3.80;;;11.70;99.90;;;;;;5011723;28;20317;-69
2023/01/01 03:28:50;;;;;;;5.35;4.05;;;11.60;99.90;;;;;;5011407;28;20217;-69
2023/01/01 03:31:22;;;;;;;4.85;3.95;;;11.60;99.90;;;;;;5011795;28;20687;-70
2023/01/01 03:33:55;;;;;;;7.70;5.25;;;11.60;99.90;;;;;;5011647;28;20305;-69
2023/01/01 03:36:27;;;;;;;9.20;5.03;;;11.50;99.90;;;;;;5012050;28;20222;-69
2023/01/01 03:39:00;;;;;;;4.20;3.70;;;11.50;99.90;;;;;;5011332;28;20214;-69
2023/01/01 03:41:34;;;;;;;5.97;3.83;;;11.40;99.90;;;;;;5011450;28;20222;-69
2023/01/01 03:44:07;;;;;;;7.45;4.30;;;11.40;99.90;;;;;;5011703;28;20214;-70
2023/01/01 03:46:36;;;;;;;5.57;3.65;;;11.40;99.90;;;;;;5011342;28;20229;-69
2023/01/01 03:49:06;;;;;;;5.55;3.85;;;11.40;99.90;;;;;;5011029;28;20209;-69
2023/01/01 03:51:50;;;;;;;4.20;3.80;;;11.40;99.90;;;;;;5011115;28;20573;-70
2023/01/01 03:54:30;;;;;;;6.57;4.35;;;11.40;99.90;;;;;;5010823;28;20582;-69
2023/01/01 03:57:03;;;;;;;4.00;3.40;;;11.40;99.90;;;;;;5011933;28;20661;-68
2023/01/01 03:59:36;;;;;;;4.22;3.80;;;11.30;99.90;;;;;;5010808;28;20205;-69
2023/01/01 04:02:08;;;;;;;4.53;3.58;;;11.30;99.90;;;;;;5011461;28;20230;-69
2023/01/01 04:04:35;;;;;;;4.07;3.50;;;11.20;99.90;;;;;;5010816;28;20211;-68
2023/01/01 04:07:02;;;;;;;4.05;3.40;;;11.20;99.90;;;;;;5011517;28;20205;-69
2023/01/01 04:09:32;;;;;;;4.00;3.60;;;11.20;99.90;;;;;;5010879;28;20652;-69
2023/01/01 04:12:03;;;;;;;6.13;4.40;;;11.20;99.90;;;;;;5011465;28;20202;-69
2023/01/01 04:14:32;;;;;;;3.90;3.50;;;11.00;99.90;;;;;;5011151;28;20206;-69
2023/01/01 04:16:59;;;;;;;6.85;4.88;;;10.70;99.90;;;;;;5011271;28;20202;-69
2023/01/01 04:19:27;;;;;;;4.90;3.60;;;10.40;99.90;;;;;;5010303;28;20689;-69
2023/01/01 04:21:53;;;;;;;4.45;3.55;;;10.30;99.90;;;;;;5011336;28;20238;-69
2023/01/01 04:24:21;;;;;;;5.70;3.90;;;10.20;99.90;;;;;;5011028;28;20198;-69
2023/01/01 04:26:48;;;;;;;6.88;4.30;;;10.20;99.90;;;;;;5011371;28;20210;-69
2023/01/01 04:29:15;;;;;;;4.15;3.47;;;10.20;99.90;;;;;;5010422;28;20203;-69
2023/01/01 04:31:42;;;;;;;5.03;3.95;;;10.10;99.90;;;;;;5010808;28;20202;-69
2023/01/01 04:34:09;;;;;;;5.10;4.30;;;10.00;99.90;;;;;;5011102;28;20420;-68
2023/01/01 04:36:37;;;;;;;7.03;4.30;;;9.90;99.90;;;;;;5010608;28;20610;-69
2023/01/01 04:39:04;;;;;;;6.30;3.45;;;9.70;99.90;;;;;;5010581;28;20670;-69
2023/01/01 04:41:31;;;;;;;4.07;3.65;;;9.60;99.90;;;;;;5010500;28;20755;-69
2023/01/01 04:43:58;;;;;;;4.35;3.95;;;9.50;99.90;;;;;;5011186;28;20207;-69
2023/01/01 04:46:25;;;;;;;7.10;4.95;;;9.40;99.90;;;;;;5010819;28;20222;-69
2023/01/01 04:48:52;;;;;;;6.32;4.00;;;9.30;99.90;;;;;;5010310;28;20596;-69
2023/01/01 04:51:20;;;;;;;8.80;4.30;;;9.10;99.90;;;;;;5011013;28;20198;-69
2023/01/01 04:53:48;;;;;;;5.05;4.50;;;9.00;99.90;;;;;;5010608;28;20209;-68
2023/01/01 04:56:18;;;;;;;5.25;3.55;;;8.90;99.90;;;;;;5010919;28;20230;-69
2023/01/01 04:58:45;;;;;;;5.75;4.18;;;8.80;99.90;;;;;;5010147;28;20202;-69
2023/01/01 05:01:15;;;;;;;5.47;4.50;;;8.70;99.90;;;;;;5010765;28;20728;-69
2023/01/01 05:03:42;;;;;;;5.07;4.25;;;8.60;99.90;;;;;;5010901;28;20576;-69
2023/01/01 05:06:11;;;;;;;5.65;4.38;;;8.60;99.90;;;;;;5014360;28;20426;-68
2023/01/01 05:08:39;;;;;;;5.50;4.05;;;8.50;99.90;;;;;;5014217;28;20225;-69
2023/01/01 05:11:10;;;;;;;4.65;3.80;;;8.50;99.90;;;;;;5014754;28;20199;-69
2023/01/01 05:13:37;;;;;;;5.38;4.05;;;8.40;99.90;;;;;;5014806;28;20712;-69
2023/01/01 05:16:04;;;;;;;5.60;4.45;;;8.40;99.90;;;;;;5014390;28;20229;-69
2023/01/01 05:18:31;;;;;;;6.88;4.57;;;8.40;99.90;;;;;;5013914;28;20666;-69
2023/01/01 05:21:00;;;;;;;8.43;4.45;;;8.30;99.90;;;;;;5014882;28;20210;-69
2023/01/01 05:23:27;;;;;;;4.35;3.95;;;8.30;99.90;;;;;;5014390;28;20226;-69
2023/01/01 05:25:53;;;;;;;5.47;3.92;;;8.40;99.90;;;;;;5014561;28;20233;-69
2023/01/01 05:28:22;;;;;;;5.47;3.70;;;8.50;99.90;;;;;;5013787;28;20210;-69
2023/01/01 05:30:49;;;;;;;7.90;3.88;;;8.50;99.90;;;;;;5013999;28;20218;-69
2023/01/01 05:33:16;;;;;;;5.13;3.63;;;8.60;99.90;;;;;;5013769;28;20206;-69
2023/01/01 05:35:43;;;;;;;5.63;3.67;;;8.80;99.90;;;;;;5013713;28;20226;-69
2023/01/01 05:38:09;;;;;;;3.92;3.47;;;8.90;99.90;;;;;;5013877;28;20680;-69
2023/01/01 05:40:38;;;;;;;4.40;3.40;;;9.00;99.90;;;;;;5013453;28;20203;-69
2023/01/01 05:43:05;;;;;;;4.80;3.40;;;9.00;99.90;;;;;;5014080;28;20226;-69
2023/01/01 05:45:34;;;;;;;7.32;4.57;;;9.00;99.90;;;;;;5013373;28;20218;-69
2023/01/01 05:48:01;;;;;;;4.32;3.47;;;9.00;99.90;;;;;;5014179;28;20198;-69
2023/01/01 05:50:28;;;;;;;5.45;4.22;;;9.00;99.90;;;;;;5012972;28;20209;-69
2023/01/01 05:52:55;;;;;;;5.10;2.65;;;9.10;99.90;;;;;;5013870;28;20209;-69
2023/01/01 05:55:21;;;;;;;4.70;3.28;;;9.10;99.90;;;;;;5013570;28;20623;-69
2023/01/01 05:57:48;;;;;;;5.00;4.32;;;9.10;99.90;;;;;;5013480;28;20206;-69
2023/01/01 06:00:15;;;;;;;6.68;3.65;;;9.10;99.90;;;;;;5013108;28;20209;-69
2023/01/01 06:02:43;;;;;;;3.95;3.28;;;9.10;99.90;;;;;;5013245;28;20233;-69
2023/01/01 06:05:10;;;;;;;3.50;2.80;;;9.10;99.90;;;;;;5013771;28;20237;-69
2023/01/01 06:07:37;;;;;;;2.95;2.60;;;9.20;99.90;;;;;;5013407;28;20574;-69
2023/01/01 06:10:04;;;;;;;6.35;3.00;;;9.30;99.90;;;;;;5004002;28;20207;-69
2023/01/01 06:12:31;;;;;;;4.13;3.05;;;9.40;99.90;;;;;;4993897;28;20203;-69
2023/01/01 06:14:58;;;;;;;4.05;3.15;;;9.50;99.90;;;;;;4993909;28;20230;-69
2023/01/01 06:17:24;;;;;;;4.78;3.50;;;9.50;99.90;;;;;;4993024;28;20211;-69
2023/01/01 06:19:52;;;;;;;4.07;2.85;;;9.60;99.90;;;;;;4993301;28;20207;-69
2023/01/01 06:22:19;;;;;;;3.40;2.65;;;9.60;99.90;;;;;;4993837;28;20595;-69
2023/01/01 06:24:46;;;;;;;3.45;2.88;;;9.60;99.90;;;;;;4993319;28;20246;-69
2023/01/01 06:27:12;;;;;;;3.65;3.10;;;9.60;99.90;;;;;;4994167;28;20214;-69
2023/01/01 06:29:39;;;;;;;4.13;3.13;;;9.60;99.90;;;;;;4992770;28;20678;-69
2023/01/01 06:32:06;;;;;;;4.07;3.10;;;9.60;99.90;;;;;;4993444;28;20203;-69
2023/01/01 06:34:32;;;;;;;2.83;2.58;;;9.60;99.90;;;;;;4993371;28;20203;-69
2023/01/01 06:37:00;;;;;;;3.22;2.92;;;9.70;99.90;;;;;;4993429;28;20203;-69
2023/01/01 06:39:27;;;;;;;3.78;2.83;;;9.60;99.90;;;;;;4992874;28;20226;-68
2023/01/01 06:41:54;;;;;;;2.95;2.65;;;9.50;99.90;;;;;;4993282;28;20227;-69
2023/01/01 06:44:20;;;;;;;5.15;3.50;;;9.40;99.90;;;;;;4993248;28;20254;-68
2023/01/01 06:46:47;;;;;;;3.85;3.00;;;9.30;99.90;;;;;;4993189;28;20303;-68
2023/01/01 06:49:14;;;;;;;3.65;3.33;;;9.10;99.90;;;;;;4992574;28;20681;-68
2023/01/01 06:51:42;;;;;;;3.05;2.72;;;9.00;99.90;;;;;;4993064;28;20226;-68
2023/01/01 06:54:11;;;;;;;3.38;3.00;;;8.90;99.90;;;;;;4993344;28;20211;-69
2023/01/01 06:56:38;;;;;;;4.35;3.20;;;8.70;99.90;;;;;;4993083;28;20226;-70
2023/01/01 06:59:05;;;;;;;3.88;2.65;;;8.60;99.90;;;;;;4992686;28;20211;-70
2023/01/01 07:01:34;;;;;;;3.58;2.90;;;8.50;99.90;;;;;;4992982;28;20214;-70
2023/01/01 07:04:03;;;;;;;3.70;2.90;;;8.40;99.90;;;;;;4993676;28;20285;-70
2023/01/01 07:06:31;;;;;;;6.72;3.33;;;8.30;99.90;;;;;;4992780;28;20706;-70
2023/01/01 07:08:58;;;;;;;4.95;3.20;;;8.30;99.90;;;;;;4992605;28;20207;-70
2023/01/01 07:11:27;;;;;;;3.78;3.10;;;8.20;99.90;;;;;;4992803;28;20583;-69
2023/01/01 07:13:54;;;;;;;4.03;2.67;;;8.10;99.90;;;;;;4992985;28;20211;-70
2023/01/01 07:16:21;;;;;;;4.60;3.10;;;8.10;99.90;;;;;;4992909;28;20250;-68
2023/01/01 07:18:49;;;;;;;4.47;3.67;;;8.00;99.90;;;;;;4992358;28;20210;-70
2023/01/01 07:21:27;;;;;;;5.30;3.35;;;8.00;99.90;;;;;;4993133;28;20203;-69
2023/01/01 07:23:55;;;;;;;5.80;3.28;;;7.90;99.90;;;;;;4992680;28;20206;-70
2023/01/01 07:26:22;;;;;;;3.88;3.10;;;7.90;99.90;;;;;;4992580;28;20714;-69
2023/01/01 07:28:50;;;;;;;4.03;3.47;;;7.90;99.90;;;;;;4991940;28;20210;-69
2023/01/01 07:31:17;;;;;;;4.07;2.85;;;7.90;99.90;;;;;;4992672;28;20222;-69
2023/01/01 07:33:44;;;;;;;4.05;3.25;;;7.90;99.90;;;;;;4992094;28;20210;-68
2023/01/01 07:36:10;;;;;;;3.40;2.70;;;7.90;99.90;;;;;;4992533;28;20227;-68
2023/01/01 07:38:37;;;;;;;5.07;3.10;;;7.90;99.90;;;;;;4991887;28;20207;-68
2023/01/01 07:41:04;;;;;;;4.75;2.55;;;8.00;99.90;;;;;;4992393;28;20207;-70
2023/01/01 07:43:31;;;;;;;3.17;2.60;;;8.00;99.90;;;;;;4992053;28;20595;-68
2023/01/01 07:45:59;;;;;;;3.03;2.70;;;8.00;99.90;;;;;;4992155;28;20227;-68
2023/01/01 07:48:26;;;;;;;3.67;2.20;;;8.10;99.90;;;;;;4991646;28;20577;-68
2023/01/01 07:50:53;;;;;;;3.13;2.55;;;8.10;99.90;;;;;;4992048;28;20211;-68
2023/01/01 07:53:19;;;;;;;4.53;3.13;;;8.10;99.90;;;;;;4992179;28;20239;-68
2023/01/01 07:55:46;;;;;;;3.53;3.10;;;8.20;99.90;;;;;;4991894;28;20223;-70
2023/01/01 07:58:13;;;;;;;4.45;2.90;;;8.20;99.90;;;;;;4991740;28;20207;-70
2023/01/01 08:00:40;;;;;;;3.42;2.80;;;8.40;99.90;;;;;;4993270;28;20215;-70
2023/01/01 08:03:09;;;;;;;5.30;3.35;;;8.70;99.90;;;;;;5000933;28;20225;-70
2023/01/01 08:05:38;;;;;;;3.05;2.20;;;9.00;99.90;;;;;;4999108;28;20705;-69
2023/01/01 08:08:04;;;;;;;5.05;3.05;;;9.20;99.90;;;;;;4997201;28;20198;-69
2023/01/01 08:10:31;;;;;;;3.45;2.30;;;9.40;99.90;;;;;;4999235;28;20199;-69
2023/01/01 08:13:01;;;;;;;3.85;2.97;;;9.60;99.90;;;;;;4999249;28;20277;-69
2023/01/01 08:15:28;;;;;;;5.10;3.33;;;9.70;99.90;;;;;;5005579;28;20227;-69
2023/01/01 08:17:59;;;;;;;4.43;3.47;;;9.70;99.90;;;;;;4998703;28;20202;-68
2023/01/01 08:20:27;;;;;;;5.45;3.10;;;9.70;99.90;;;;;;5010377;28;20199;-69
2023/01/01 08:22:54;;;;;;;4.60;3.08;;;9.70;99.90;;;;;;5011779;28;20249;-70
2023/01/01 08:25:22;;;;;;;4.55;3.63;;;9.70;99.90;;;;;;5011254;28;20222;-69
2023/01/01 08:27:48;;;;;;;4.22;3.10;;;9.70;99.90;;;;;;5011157;28;20218;-69
2023/01/01 08:30:16;;;;;;;3.97;3.25;;;9.60;99.90;;;;;;5010913;28;20210;-69
2023/01/01 08:32:43;;;;;;;5.70;4.38;;;9.60;99.90;;;;;;5011254;28;20196;-69
2023/01/01 08:35:10;;;;;;;5.20;3.83;;;9.70;99.90;;;;;;5011060;28;20317;-69
2023/01/01 08:37:38;;;;;;;4.68;3.72;;;9.70;99.90;;;;;;5011262;28;20199;-69
2023/01/01 08:40:06;;;;;;;7.38;4.70;;;9.70;99.90;;;;;;5010590;28;20210;-69
2023/01/01 08:42:33;;;;;;;5.40;4.00;;;9.70;99.90;;;;;;5011021;28;20229;-69
2023/01/01 08:44:59;;;;;;;4.78;3.58;;;9.80;99.90;;;;;;5011511;28;20233;-69
2023/01/01 08:47:26;;;;;;;5.00;3.72;;;10.00;99.90;;;;;;5010770;28;20198;-69
2023/01/01 08:49:53;;;;;;;4.38;3.63;;;10.20;99.90;;;;;;5010772;28;20202;-69
2023/01/01 08:52:21;;;;;;;4.13;3.72;;;10.30;99.90;;;;;;5010982;28;20206;-69
2023/01/01 08:54:49;;;;;;;5.28;3.85;;;10.40;99.90;;;;;;5010847;28;20226;-68
2023/01/01 08:57:16;;;;;;;4.60;3.55;;;10.60;99.90;;;;;;5011417;28;20213;-69
2023/01/01 08:59:42;;;;;;;4.93;3.60;;;10.70;99.90;;;;;;5010576;28;20203;-69
2023/01/01 09:02:10;;;;;;;2.97;2.33;;;10.90;99.90;;;;;;5012050;28;20210;-69
2023/01/01 09:04:37;;;;;;;3.13;2.60;;;11.00;99.90;;;;;;5012438;28;20223;-69
2023/01/01 09:07:04;;;;;;;2.85;2.58;;;11.00;99.90;;;;;;5014753;28;20238;-69
2023/01/01 09:09:31;;;;;;;3.00;2.70;;;11.10;99.90;;;;;;5014564;28;20233;-69
2023/01/01 09:12:02;;;;;;;3.28;2.30;;;11.30;99.90;;;;;;5014216;28;20205;-69
2023/01/01 09:14:30;;;;;;;3.97;2.80;;;11.40;99.90;;;;;;5013619;28;20198;-69
2023/01/01 09:16:57;;;;;;;5.57;3.88;;;11.70;99.90;;;;;;5011810;28;20624;-69
2023/01/01 09:19:24;;;;;;;3.25;2.20;;;12.10;99.90;;;;;;5012239;28;20206;-69
2023/01/01 09:21:51;;;;;;;4.15;2.83;;;12.60;99.90;;;;;;5012596;28;20202;-70
2023/01/01 09:24:17;;;;;;;2.63;2.30;;;13.00;99.90;;;;;;5011526;28;20229;-69
2023/01/01 09:26:45;;;;;;;3.35;2.45;;;13.50;99.90;;;;;;5012021;28;20213;-69
2023/01/01 09:29:17;;;;;;;4.70;2.30;;;13.80;99.90;;;;;;5011588;28;20206;-69
2023/01/01 09:31:44;;;;;;;3.70;2.17;;;14.30;99.90;;;;;;5011502;28;20680;-70
2023/01/01 09:34:10;;;;;;;2.23;1.80;;;15.00;99.90;;;;;;5012434;28;20453;-70
2023/01/01 09:36:37;;;;;;;2.30;2.00;;;15.60;99.90;;;;;;5012201;28;21090;-70
2023/01/01 09:39:05;;;;;;;2.27;2.07;;;16.20;99.90;;;;;;5010517;28;20465;-70
2023/01/01 09:41:49;;;;;;;2.33;2.00;;;16.80;99.90;;;;;;5010495;28;20822;-71
2023/01/01 09:44:30;;;;;;;2.30;2.10;;;17.40;99.90;;;;;;5010654;28;20495;-70
2023/01/01 09:47:00;;;;;;;2.97;2.20;;;18.20;99.90;;;;;;5010618;28;20485;-70
2023/01/01 09:49:35;;;;;;;2.20;1.90;;;18.50;99.90;;;;;;5009986;28;20590;-71
2023/01/01 09:52:04;;;;;;;2.40;2.20;;;18.90;99.90;;;;;;5012116;28;20466;-70
2023/01/01 09:54:36;;;;;;;2.67;2.43;;;18.40;99.90;;;;;;5013776;28;20457;-71
2023/01/01 09:57:09;;;;;;;4.77;2.27;;;18.50;99.90;;;;;;5014250;28;20876;-71
2023/01/01 09:59:37;;;;;;;2.07;1.87;;;19.30;99.90;;;;;;5013558;28;20461;-70
2023/01/01 10:02:14;;;;;;;2.43;2.23;;;19.30;99.90;;;;;;5014013;28;20465;-71
2023/01/01 10:04:50;;;;;;;2.20;2.00;;;20.00;99.90;;;;;;5013608;28;20862;-71
2023/01/01 10:07:25;;;;;;;2.53;2.13;;;20.20;99.90;;;;;;5014010;28;20472;-71
2023/01/01 10:09:59;;;;;;;2.37;1.97;;;20.50;99.90;;;;;;5013438;28;20548;-71
2023/01/01 10:12:36;;;;;;;3.00;2.23;;;21.10;99.90;;;;;;5013928;28;20465;-71
2023/01/01 10:15:14;;;;;;;2.50;2.30;;;21.60;99.90;;;;;;5013851;28;20481;-71
2023/01/01 10:17:45;;;;;;;3.10;2.27;;;22.00;99.90;;;;;;5013471;28;20975;-71
2023/01/01 10:20:18;;;;;;;2.63;2.30;;;22.30;99.30;;;;;;5013070;28;20465;-70
2023/01/01 10:22:48;;;;;;;2.22;2.03;;;22.20;98.80;;;;;;5013246;28;20466;-72
2023/01/01 10:25:19;;;;;;;2.50;2.30;;;22.20;98.70;;;;;;5012011;28;20463;-70
2023/01/01 10:27:49;;;;;;;3.20;2.53;;;22.30;98.30;;;;;;5013276;28;20198;-70
2023/01/01 10:30:19;;;;;;;2.60;2.13;;;22.90;98.60;;;;;;5012788;28;20553;-69
2023/01/01 10:32:48;;;;;;;3.00;2.20;;;23.30;97.30;;;;;;5013351;28;20457;-69
2023/01/01 10:35:18;;;;;;;3.20;2.03;;;22.90;97.50;;;;;;5013157;28;20494;-69
2023/01/01 10:37:45;;;;;;;3.40;2.47;;;22.50;98.10;;;;;;5004631;28;20945;-68
2023/01/01 10:40:17;;;;;;;2.80;2.30;;;22.30;97.50;;;;;;5004013;28;20993;-69
2023/01/01 10:42:48;;;;;;;3.90;2.40;;;21.70;97.60;;;;;;5002318;28;20972;-69
2023/01/01 10:45:18;;;;;;;3.43;2.10;;;21.80;98.00;;;;;;5007654;28;20496;-68
2023/01/01 10:48:11;;;;;;;2.30;2.07;;;21.80;97.60;;;;;;5007561;28;21017;-69
2023/01/01 10:50:43;;;;;;;2.60;2.20;;;22.30;97.20;;;;;;5010516;28;20453;-70
2023/01/01 10:53:31;;;;;;;3.90;2.40;;;22.70;97.10;;;;;;5012595;28;20464;-68
2023/01/01 10:56:00;;;;;;;3.83;2.43;;;23.80;96.30;;;;;;5012799;28;20494;-69
2023/01/01 10:58:37;;;;;;;2.73;2.03;;;24.10;95.40;;;;;;5012060;28;20462;-69
2023/01/01 11:01:08;;;;;;;2.53;2.33;;;24.00;95.60;;;;;;5012644;28;20472;-69
2023/01/01 11:03:35;;;;;;;2.40;2.13;;;24.30;95.10;;;;;;5012151;28;20481;-69
2023/01/01 11:06:18;;;;;;;3.20;2.73;;;24.90;94.70;;;;;;5012491;28;21011;-69
2023/01/01 11:08:48;;;;;;;3.50;2.30;;;24.90;94.40;;;;;;5011930;28;20523;-69
2023/01/01 11:11:21;;;;;;;3.07;2.40;;;24.60;94.20;;;;;;5012694;28;20462;-70
2023/01/01 11:13:51;;;;;;;2.80;1.90;;;24.70;94.20;;;;;;5012359;28;20461;-69
2023/01/01 11:16:19;;;;;;;1.90;1.70;;;24.20;94.40;;;;;;5012340;28;20565;-70
2023/01/01 11:18:47;;;;;;;2.87;2.47;;;24.60;94.10;;;;;;5011688;28;20472;-68
2023/01/01 11:21:20;;;;;;;3.83;2.70;;;25.10;93.80;;;;;;5012011;28;20493;-69
2023/01/01 11:23:48;;;;;;;3.30;2.67;;;25.50;93.20;;;;;;5012310;28;20492;-69
2023/01/01 11:26:23;;;;;;;2.30;2.10;;;24.90;93.40;;;;;;5012168;28;20839;-68
2023/01/01 11:28:59;;;;;;;2.20;1.90;;;24.70;93.80;;;;;;5011901;28;20468;-69
2023/01/01 11:31:30;;;;;;;4.83;2.30;;;24.20;93.50;;;;;;5012087;28;20595;-70
2023/01/01 11:33:57;;;;;;;2.70;1.83;;;24.00;94.30;;;;;;5011979;28;20956;-70
2023/01/01 11:36:26;;;;;;;3.80;2.10;;;23.60;94.00;;;;;;5011985;28;20477;-69
2023/01/01 11:39:07;;;;;;;2.20;1.77;;;23.40;93.80;;;;;;5011561;28;20465;-68
2023/01/01 11:41:43;;;;;;;3.00;2.00;;;22.50;94.60;;;;;;5011636;28;20472;-69
2023/01/01 11:44:12;;;;;;;2.93;2.17;;;21.80;95.10;;;;;;5011761;28;20481;-69
2023/01/01 11:46:41;;;;;;;2.40;1.93;;;21.40;95.60;;;;;;5011386;28;20488;-70
2023/01/01 11:49:14;;;;;;;2.60;1.77;;;21.00;95.60;;;;;;5011675;28;20465;-69
2023/01/01 11:51:42;;;;;;;4.23;2.53;;;20.70;96.30;;;;;;5011767;28;20556;-69
2023/01/01 11:54:24;;;;;;;2.47;2.27;;;20.90;96.40;;;;;;5011967;28;20834;-68
2023/01/01 11:56:55;;;;;;;3.47;1.97;;;21.10;95.80;;;;;;5012282;28;20465;-69
2023/01/01 11:59:27;;;;;;;1.70;1.60;;;20.70;96.20;;;;;;5011392;28;20464;-68
2023/01/01 12:01:59;;;;;;;3.73;1.90;;;20.60;96.00;;;;;;5011981;28;20471;-69
2023/01/01 12:04:31;;;;;;;2.70;1.80;;;20.10;96.40;;;;;;5011561;28;20521;-68
2023/01/01 12:07:03;;;;;;;3.70;2.43;;;19.60;97.10;;;;;;5011737;28;20457;-69
2023/01/01 12:09:37;;;;;;;2.63;2.10;;;19.50;97.10;;;;;;5011362;28;20963;-69
2023/01/01 12:12:09;;;;;;;3.73;2.07;;;19.50;97.00;;;;;;5006643;28;20469;-68
2023/01/01 12:14:44;;;;;;;1.60;1.50;;;19.60;97.40;;;;;;5010431;28;20511;-69
2023/01/01 12:17:19;;;;;;;2.33;1.90;;;19.70;97.40;;;;;;5011518;28;20471;-69
2023/01/01 12:19:56;;;;;;;2.30;1.93;;;19.80;96.80;;;;;;5010551;28;20469;-68
2023/01/01 12:22:23;;;;;;;2.77;2.20;;;19.60;96.90;;;;;;5010962;28;20469;-69
2023/01/01 12:24:52;;;;;;;3.33;2.20;;;19.60;97.00;;;;;;5010923;28;20489;-69
2023/01/01 12:27:31;;;;;;;2.27;1.97;;;19.30;97.00;;;;;;5011294;28;20453;-69
2023/01/01 12:30:15;;;;;;;2.00;1.80;;;19.10;97.50;;;;;;5010443;28;20475;-69
2023/01/01 12:33:18;;;;;;;2.17;1.97;;;19.40;97.70;;;;;;5008923;28;20481;-69
2023/01/01 12:36:01;;;;;;;2.67;1.97;;;19.50;97.00;;;;;;5010551;28;20480;-69
2023/01/01 12:39:00;;;;;;;2.80;2.10;;;19.30;97.50;;;;;;5010619;28;20489;-69
2023/01/01 12:41:34;;;;;;;2.70;2.50;;;19.30;97.20;;;;;;5004376;28;20469;-69
2023/01/01 12:44:11;;;;;;;3.47;2.27;;;19.00;98.00;;;;;;5010668;28;20533;-68
2023/01/01 12:46:45;;;;;;;4.10;2.10;;;18.90;97.60;;;;;;5010598;28;20480;-68
2023/01/01 12:49:38;;;;;;;2.20;2.00;;;18.70;98.00;;;;;;4991714;28;20820;-68
2023/01/01 12:52:16;;;;;;;2.23;2.03;;;18.90;97.90;;;;;;4991514;28;20473;-68
2023/01/01 12:55:17;;;;;;;3.63;2.37;;;18.90;97.90;;;;;;4991138;28;20846;-70
2023/01/01 12:57:48;;;;;;;3.47;2.50;;;18.90;98.10;;;;;;4990998;28;20457;-68
2023/01/01 13:00:18;;;;;;;2.27;1.90;;;19.00;98.60;;;;;;4990786;28;20481;-68
2023/01/01 13:02:49;;;;;;;2.30;1.87;;;19.20;98.10;;;;;;5009686;28;20461;-68
2023/01/01 13:05:22;;;;;;;1.90;1.70;;;19.20;98.00;;;;;;5010930;28;20493;-68
2023/01/01 13:07:53;;;;;;;2.50;2.13;;;19.40;97.70;;;;;;5010762;28;20882;-68
2023/01/01 13:10:26;;;;;;;2.93;2.23;;;19.40;97.70;;;;;;4998793;28;20565;-69